CBL2 weather

Buck Lake Seaplane Base
Severn Bridge, Ontario, Canada

Public forecast

Using degrees Celsius for public forecast. Weather courtesy of forecast.io.

METAR (pilot weather report)

Closest report is Muskoka Airport, 13.1 nm (24.2 km) NNE. Retrieved 2019/05/25 07:00 UTC (9 minutes ago):

CYQA 250700Z AUTO 12005KT 9SM CLR 12/10 A3006 RMK SLP183

TAF (pilot weather forecast)

Forecast is more than 6 hours old.

Closest forecast is Muskoka Airport, 13.1 nm (24.2 km) NNE. Retrieved 2019/05/24 20:00 UTC (11 hours ago):

TAF CYQA 241938Z 2420/2502 VRB03KT P6SM BKN050 FM242200 VRB03KT P6SM SCT030 BKN210 RMK FCST BASED ON AUTO OBS. NXT FCST WILL BE ISSUED AT 251145Z